Airport ID:KCCB
Update Time (UTC):26/05/2018 15:13
Wind Speed (Knots):1
Wind Direction (Magnetic):200
Temperature (°C):12.1
Dew Point (°C):9.9
Humidity (%):86.6
Altimeter (inHg):30.02
Density Altitude (Feet):
Visibility (Miles):7
Clouds (Hundreds of feet):SCT012 OVC017
Present Weather:BR
METAR:METAR KCCB 261510Z AUTO 00000KT 7SM SCT012 OVC017 12/10 A3002 RMK AO2

The data displayed is for advisory purposes only and is not to be used for flight planning or operations.

This page is not automatically refreshed. Reload the page to see current data.